createdAt,value
2023-03-24T00:01:06.937Z,2.13
2023-03-24T00:03:33.631Z,1.95
2023-03-24T00:06:03.164Z,1.80
2023-03-24T00:08:31.782Z,1.90
2023-03-24T00:11:01.635Z,2.28
2023-03-24T00:13:29.341Z,2.00
2023-03-24T00:15:56.631Z,2.10
2023-03-24T00:18:25.889Z,1.80
2023-03-24T00:20:58.673Z,2.05
2023-03-24T00:23:27.878Z,2.20
2023-03-24T00:26:04.952Z,1.70
2023-03-24T00:28:33.315Z,2.22
2023-03-24T00:31:02.191Z,1.88
2023-03-24T00:33:34.869Z,1.80
2023-03-24T00:36:07.011Z,1.98
2023-03-24T00:38:34.804Z,1.80
2023-03-24T00:41:02.368Z,1.85
2023-03-24T00:43:29.656Z,2.03
2023-03-24T00:46:05.974Z,1.60
2023-03-24T00:48:33.002Z,1.77
2023-03-24T00:51:02.937Z,2.00
2023-03-24T00:53:29.729Z,2.10
2023-03-24T00:55:58.405Z,1.70
2023-03-24T00:58:25.459Z,1.60
2023-03-24T01:00:56.959Z,1.73
2023-03-24T01:03:27.693Z,1.95
2023-03-24T01:05:57.786Z,1.90
2023-03-24T01:08:25.648Z,1.60
2023-03-24T01:10:54.282Z,1.60
2023-03-24T01:13:23.687Z,1.60
2023-03-24T01:15:51.202Z,1.83
2023-03-24T01:18:18.450Z,1.85
2023-03-24T01:20:47.141Z,2.17
2023-03-24T01:23:16.386Z,1.65
2023-03-24T01:25:45.903Z,2.10
2023-03-24T01:28:13.452Z,1.63
2023-03-24T01:30:40.512Z,1.83
2023-03-24T01:33:07.942Z,2.10
2023-03-24T01:35:35.348Z,1.60
2023-03-24T01:38:06.454Z,1.60
2023-03-24T01:40:34.774Z,1.67
2023-03-24T01:43:01.412Z,1.50
2023-03-24T01:45:42.562Z,1.67
2023-03-24T01:48:18.808Z,1.88
2023-03-24T01:51:04.594Z,1.60
2023-03-24T01:53:34.018Z,1.80
2023-03-24T01:56:02.765Z,1.60
2023-03-24T01:58:32.384Z,1.63
2023-03-24T02:00:59.156Z,1.70
2023-03-24T02:03:29.994Z,1.58
2023-03-24T02:05:57.698Z,1.73
2023-03-24T02:08:48.218Z,1.80
2023-03-24T02:11:14.877Z,1.42
2023-03-24T02:13:41.482Z,1.60
2023-03-24T02:16:26.018Z,1.80
2023-03-24T02:19:14.803Z,1.60
2023-03-24T02:21:59.699Z,1.50
2023-03-24T02:25:04.394Z,1.77
2023-03-24T02:27:52.329Z,1.60
2023-03-24T02:31:19.745Z,1.30
2023-03-24T02:33:52.290Z,2.10
2023-03-24T02:36:21.749Z,1.48
2023-03-24T02:39:25.810Z,1.67
2023-03-24T02:42:31.200Z,1.63
2023-03-24T02:45:35.271Z,2.08
2023-03-24T02:48:20.616Z,1.65
2023-03-24T02:51:08.507Z,1.73
2023-03-24T02:54:23.135Z,1.63
2023-03-24T02:56:58.392Z,1.65
2023-03-24T02:59:44.925Z,1.65
2023-03-24T03:02:20.290Z,1.75
2023-03-24T03:04:52.699Z,1.73
2023-03-24T03:07:25.053Z,1.63
2023-03-24T03:09:59.958Z,1.80
2023-03-24T03:12:31.681Z,1.75
2023-03-24T03:15:03.614Z,1.90
2023-03-24T03:17:35.647Z,1.60
2023-03-24T03:20:11.249Z,1.70
2023-03-24T03:22:45.339Z,1.60
2023-03-24T03:25:16.639Z,1.77
2023-03-24T03:27:46.957Z,1.55
2023-03-24T03:30:22.330Z,1.40
2023-03-24T03:32:55.427Z,1.92
2023-03-24T03:35:51.017Z,1.60
2023-03-24T03:38:26.325Z,1.65
2023-03-24T03:41:00.218Z,1.75
2023-03-24T03:43:28.425Z,1.98
2023-03-24T03:45:55.709Z,1.83
2023-03-24T03:48:26.373Z,1.75
2023-03-24T03:51:06.275Z,1.27
2023-03-24T03:53:51.456Z,1.63
2023-03-24T03:56:20.648Z,1.77
2023-03-24T03:58:47.294Z,1.77
2023-03-24T04:01:18.664Z,2.28
2023-03-24T04:04:06.549Z,1.77
2023-03-24T04:06:36.100Z,1.30
2023-03-24T04:09:28.615Z,1.65
2023-03-24T04:12:02.699Z,1.33
2023-03-24T04:14:46.039Z,1.95
2023-03-24T04:17:46.507Z,1.60
2023-03-24T04:20:24.244Z,1.75
2023-03-24T04:23:26.400Z,1.60
2023-03-24T04:26:34.336Z,1.45
2023-03-24T04:29:09.968Z,1.33
2023-03-24T04:31:49.171Z,1.58
2023-03-24T04:34:22.056Z,1.48
2023-03-24T04:36:54.576Z,1.37
2023-03-24T04:39:28.147Z,1.70
2023-03-24T04:41:57.840Z,1.83
2023-03-24T04:44:26.498Z,1.63
2023-03-24T04:46:57.688Z,1.50
2023-03-24T04:49:25.426Z,1.80
2023-03-24T04:51:52.513Z,1.25
2023-03-24T04:54:20.491Z,1.65
2023-03-24T04:56:50.912Z,1.55
2023-03-24T04:59:18.495Z,1.52
2023-03-24T05:01:51.724Z,1.48
2023-03-24T05:04:28.157Z,1.42
2023-03-24T05:06:55.100Z,1.70
2023-03-24T05:09:23.663Z,1.77
2023-03-24T05:11:50.718Z,1.80
2023-03-24T05:14:17.249Z,1.85
2023-03-24T05:16:43.888Z,1.60
2023-03-24T05:19:11.082Z,1.65
2023-03-24T05:21:37.733Z,1.63
2023-03-24T05:24:04.674Z,2.03
2023-03-24T05:26:33.125Z,1.83
2023-03-24T05:29:00.347Z,2.40
2023-03-24T05:31:27.196Z,2.13
2023-03-24T05:33:53.963Z,1.70
2023-03-24T05:36:20.514Z,2.00
2023-03-24T05:38:47.130Z,1.58
2023-03-24T05:41:13.729Z,2.33
2023-03-24T05:43:40.286Z,1.95
2023-03-24T05:46:07.131Z,1.67
2023-03-24T05:48:33.695Z,1.80
2023-03-24T05:51:00.274Z,2.13
2023-03-24T05:53:26.813Z,2.03
2023-03-24T05:55:53.686Z,2.25
2023-03-24T05:58:21.464Z,2.08
2023-03-24T06:00:48.389Z,2.63
2023-03-24T06:03:17.272Z,2.20
2023-03-24T06:05:45.775Z,2.13
2023-03-24T06:08:12.699Z,2.17
2023-03-24T06:10:40.661Z,2.17
2023-03-24T06:13:09.126Z,3.17
2023-03-24T06:15:36.255Z,2.53
2023-03-24T06:18:05.389Z,2.55
2023-03-24T06:20:32.293Z,2.80
2023-03-24T06:22:59.906Z,2.60
2023-03-24T06:25:28.576Z,3.35
2023-03-24T06:27:55.288Z,3.30
2023-03-24T06:30:21.824Z,3.10
2023-03-24T06:32:48.713Z,3.65
2023-03-24T06:35:17.057Z,3.13
2023-03-24T06:37:44.716Z,3.10
2023-03-24T06:40:15.987Z,2.97
2023-03-24T06:42:42.648Z,3.28
2023-03-24T06:45:10.033Z,3.60
2023-03-24T06:47:37.273Z,3.92
2023-03-24T06:50:05.594Z,3.95
2023-03-24T06:52:32.224Z,3.63
2023-03-24T06:54:58.952Z,3.85
2023-03-24T06:57:26.023Z,3.30
2023-03-24T06:59:53.346Z,3.70
2023-03-24T07:02:19.926Z,4.25
2023-03-24T07:04:46.505Z,3.47
2023-03-24T07:07:52.800Z,3.75
2023-03-24T07:09:59.814Z,4.32
2023-03-24T07:12:26.406Z,3.92
2023-03-24T07:14:52.936Z,4.20
2023-03-24T07:17:19.410Z,3.80
2023-03-24T07:19:45.990Z,4.07
2023-03-24T07:22:12.515Z,4.63
2023-03-24T07:24:39.028Z,4.05
2023-03-24T07:27:06.745Z,4.20
2023-03-24T07:29:33.247Z,3.45
2023-03-24T07:32:00.998Z,3.58
2023-03-24T07:34:28.608Z,4.30
2023-03-24T07:36:56.081Z,4.53
2023-03-24T07:39:22.629Z,4.57
2023-03-24T07:41:49.184Z,3.83
2023-03-24T07:44:15.904Z,3.95
2023-03-24T07:46:42.558Z,4.65
2023-03-24T07:49:18.975Z,3.67
2023-03-24T07:51:46.540Z,4.20
2023-03-24T07:54:13.272Z,4.63
2023-03-24T07:56:39.825Z,3.90
2023-03-24T07:59:06.518Z,3.83
2023-03-24T08:01:33.118Z,4.22
2023-03-24T08:03:59.989Z,4.28
2023-03-24T08:06:26.789Z,3.88
2023-03-24T08:08:53.303Z,5.15
2023-03-24T08:11:19.811Z,3.80
2023-03-24T08:13:46.401Z,3.45
2023-03-24T08:16:12.986Z,4.30
2023-03-24T08:18:39.581Z,4.00
2023-03-24T08:21:06.582Z,3.78
2023-03-24T08:23:33.336Z,4.32
2023-03-24T08:25:59.866Z,3.90
2023-03-24T08:28:26.425Z,4.10
2023-03-24T08:30:53.106Z,4.00
2023-03-24T08:33:19.698Z,3.75
2023-03-24T08:35:46.820Z,3.80
2023-03-24T08:38:18.116Z,3.95
2023-03-24T08:40:45.485Z,4.22
2023-03-24T08:43:15.314Z,3.90
2023-03-24T08:45:41.871Z,3.65
2023-03-24T08:48:09.117Z,3.85
2023-03-24T08:50:39.230Z,3.65
2023-03-24T08:53:06.170Z,4.35
2023-03-24T08:55:32.754Z,4.07
2023-03-24T08:57:59.747Z,3.90
2023-03-24T09:00:29.071Z,3.72
2023-03-24T09:02:56.582Z,3.45
2023-03-24T09:05:40.998Z,2.85
2023-03-24T09:08:12.412Z,3.83
2023-03-24T09:10:39.770Z,3.55
2023-03-24T09:13:06.368Z,3.50
2023-03-24T09:15:33.740Z,3.70
2023-03-24T09:18:00.900Z,3.35
2023-03-24T09:20:27.556Z,3.00
2023-03-24T09:22:54.195Z,3.75
2023-03-24T09:25:21.514Z,3.55
2023-03-24T09:27:48.397Z,3.08
2023-03-24T09:30:17.524Z,3.25
2023-03-24T09:32:45.470Z,2.90
2023-03-24T09:35:12.078Z,3.30
2023-03-24T09:37:39.364Z,3.42
2023-03-24T09:40:07.805Z,2.80
2023-03-24T09:42:38.662Z,2.70
2023-03-24T09:45:13.533Z,3.75
2023-03-24T09:47:51.211Z,3.20
2023-03-24T09:50:22.820Z,2.80
2023-03-24T09:52:54.780Z,3.08
2023-03-24T09:55:25.388Z,3.00
2023-03-24T09:57:53.779Z,2.70
2023-03-24T10:00:30.528Z,3.65
2023-03-24T10:03:01.865Z,2.90
2023-03-24T10:05:47.367Z,2.38
2023-03-24T10:08:33.577Z,3.22
2023-03-24T10:11:11.306Z,2.78
2023-03-24T10:14:04.365Z,2.67
2023-03-24T10:16:38.987Z,2.85
2023-03-24T10:19:17.521Z,2.83
2023-03-24T10:22:13.989Z,2.60
2023-03-24T10:25:06.529Z,2.55
2023-03-24T10:27:45.293Z,3.17
2023-03-24T10:30:17.692Z,2.67
2023-03-24T10:32:45.349Z,2.53
2023-03-24T10:35:37.297Z,2.72
2023-03-24T10:38:19.829Z,2.72
2023-03-24T10:40:47.953Z,2.45
2023-03-24T10:43:17.299Z,2.10
2023-03-24T10:45:47.490Z,2.70
2023-03-24T10:48:33.150Z,2.13
2023-03-24T10:50:59.981Z,2.92
2023-03-24T10:53:27.341Z,2.22
2023-03-24T10:55:54.001Z,2.53
2023-03-24T10:58:39.752Z,2.75
2023-03-24T11:01:23.529Z,2.90
2023-03-24T11:03:50.930Z,3.08
2023-03-24T11:06:20.690Z,3.70
2023-03-24T11:08:47.531Z,3.90
2023-03-24T11:11:31.654Z,3.92
2023-03-24T11:14:04.544Z,4.85
2023-03-24T11:16:36.677Z,4.50
2023-03-24T11:19:23.316Z,5.50
2023-03-24T11:21:52.220Z,4.72
2023-03-24T11:24:20.650Z,6.82
2023-03-24T11:27:03.217Z,6.20
2023-03-24T11:29:38.513Z,6.93
2023-03-24T11:32:14.223Z,8.45
2023-03-24T11:34:48.895Z,7.93
2023-03-24T11:37:22.210Z,7.25
2023-03-24T11:40:14.585Z,5.97
2023-03-24T11:42:45.425Z,8.23
2023-03-24T11:45:35.834Z,7.85
2023-03-24T11:48:11.330Z,8.50
2023-03-24T11:50:39.303Z,8.45
2023-03-24T11:53:14.739Z,9.55
2023-03-24T11:55:49.521Z,10.15
2023-03-24T11:58:44.154Z,11.20
2023-03-24T12:01:28.533Z,11.60
2023-03-24T12:04:13.031Z,12.80
2023-03-24T12:06:58.753Z,12.88
2023-03-24T12:09:32.502Z,14.00
2023-03-24T12:15:28.721Z,15.25
2023-03-24T12:18:20.204Z,14.05
2023-03-24T12:20:53.948Z,14.35
2023-03-24T12:23:32.933Z,14.25
2023-03-24T12:26:32.997Z,16.10
2023-03-24T12:29:15.108Z,15.75
2023-03-24T12:32:03.382Z,16.10
2023-03-24T12:34:42.472Z,15.32
2023-03-24T12:37:42.850Z,13.60
2023-03-24T12:40:13.004Z,13.75
2023-03-24T12:42:42.018Z,14.30
2023-03-24T12:45:20.667Z,14.57
2023-03-24T12:48:05.351Z,16.17
2023-03-24T12:50:58.979Z,16.13
2023-03-24T12:53:45.811Z,16.38
2023-03-24T12:56:19.118Z,15.02
2023-03-24T12:58:50.340Z,15.38
2023-03-24T13:01:23.551Z,16.33
2023-03-24T13:04:01.056Z,15.73
2023-03-24T13:06:36.346Z,14.50
2023-03-24T13:09:33.337Z,17.02
2023-03-24T13:12:22.641Z,16.30
2023-03-24T13:15:06.998Z,14.63
2023-03-24T13:17:39.188Z,14.52
2023-03-24T13:20:12.592Z,14.30
2023-03-24T13:22:39.954Z,14.48
2023-03-24T13:25:25.100Z,13.70
2023-03-24T13:27:57.475Z,13.02
2023-03-24T13:30:32.485Z,14.10
2023-03-24T13:33:16.935Z,12.70
2023-03-24T13:36:17.267Z,12.07
2023-03-24T13:38:51.590Z,13.05
2023-03-24T13:41:23.985Z,12.75
2023-03-24T13:43:57.639Z,11.13
2023-03-24T13:48:54.409Z,10.88
2023-03-24T13:51:32.780Z,10.27
2023-03-24T13:54:07.034Z,10.05
2023-03-24T13:56:42.536Z,10.85
2023-03-24T13:59:25.459Z,9.82
2023-03-24T14:02:17.628Z,9.30
2023-03-24T14:04:45.778Z,6.82
2023-03-24T14:07:49.980Z,5.20
2023-03-24T14:10:16.583Z,6.13
2023-03-24T14:13:01.798Z,6.03
2023-03-24T14:15:32.825Z,5.50
2023-03-24T14:18:23.481Z,5.38
2023-03-24T14:20:56.350Z,6.10
2023-03-24T14:23:22.970Z,7.00
2023-03-24T14:25:55.600Z,6.80
2023-03-24T14:28:41.586Z,7.32
2023-03-24T14:31:16.032Z,7.78
2023-03-24T14:34:02.138Z,6.25
2023-03-24T14:36:39.579Z,4.60
2023-03-24T14:39:27.525Z,9.02
2023-03-24T14:41:55.889Z,7.25
2023-03-24T14:44:51.920Z,9.10
2023-03-24T14:47:21.452Z,9.35
2023-03-24T14:49:50.668Z,8.85
2023-03-24T14:52:24.925Z,10.35
2023-03-24T14:55:05.903Z,9.30
2023-03-24T14:57:40.022Z,10.45
2023-03-24T15:00:24.952Z,10.43
2023-03-24T15:03:24.094Z,10.18
2023-03-24T15:05:50.993Z,9.23
2023-03-24T15:08:23.521Z,7.70
2023-03-24T15:11:05.212Z,10.73
2023-03-24T15:13:37.012Z,10.57
2023-03-24T15:16:07.081Z,9.68
2023-03-24T15:18:34.776Z,11.70
2023-03-24T15:21:01.318Z,11.25
2023-03-24T15:23:28.447Z,11.65
2023-03-24T15:25:56.364Z,11.32
2023-03-24T15:28:28.303Z,10.88
2023-03-24T15:30:56.586Z,12.43
2023-03-24T15:33:23.615Z,10.82
2023-03-24T15:35:56.839Z,10.88
2023-03-24T15:38:31.976Z,11.95
2023-03-24T15:41:05.348Z,12.10
2023-03-24T15:43:32.038Z,10.82
2023-03-24T15:46:11.934Z,12.30
2023-03-24T15:48:39.579Z,11.68
2023-03-24T15:51:09.229Z,11.18
2023-03-24T15:53:49.015Z,9.85
2023-03-24T15:56:17.950Z,9.52
2023-03-24T15:58:57.516Z,10.88
2023-03-24T16:01:35.821Z,10.90
2023-03-24T16:04:06.010Z,10.30
2023-03-24T16:06:35.492Z,10.77
2023-03-24T16:09:06.737Z,10.65
2023-03-24T16:11:33.287Z,11.40
2023-03-24T16:14:18.344Z,8.73
2023-03-24T16:16:44.935Z,8.52
2023-03-24T16:19:12.174Z,10.75
2023-03-24T16:21:39.024Z,11.43
2023-03-24T16:24:05.802Z,10.43
2023-03-24T16:26:33.295Z,10.23
2023-03-24T16:29:14.470Z,10.23
2023-03-24T16:31:41.051Z,10.63
2023-03-24T16:34:07.585Z,11.05
2023-03-24T16:36:34.234Z,10.50
2023-03-24T16:39:05.022Z,9.65
2023-03-24T16:41:31.583Z,11.07
2023-03-24T16:43:58.127Z,11.93
2023-03-24T16:46:27.653Z,10.65
2023-03-24T16:48:54.857Z,12.27
2023-03-24T16:51:21.936Z,13.85
2023-03-24T16:53:48.890Z,13.85
2023-03-24T16:56:18.872Z,13.20
2023-03-24T16:58:48.739Z,17.05
2023-03-24T17:01:26.417Z,20.95
2023-03-24T17:03:58.514Z,20.48
2023-03-24T17:06:26.977Z,21.10
2023-03-24T17:08:53.791Z,19.90
2023-03-24T17:11:34.016Z,17.70
2023-03-24T17:14:04.879Z,18.02
2023-03-24T17:16:36.358Z,17.08
2023-03-24T17:19:06.417Z,19.80
2023-03-24T17:21:37.189Z,16.73
2023-03-24T17:24:03.932Z,27.67
2023-03-24T17:26:31.962Z,20.25
2023-03-24T17:28:58.780Z,14.85
2023-03-24T17:31:25.336Z,15.15
2023-03-24T17:33:51.908Z,15.05
2023-03-24T17:36:18.444Z,15.60
2023-03-24T17:38:47.974Z,13.98
2023-03-24T17:41:14.876Z,14.18
2023-03-24T17:43:41.403Z,14.63
2023-03-24T17:46:08.361Z,13.80
2023-03-24T17:48:37.639Z,13.63
2023-03-24T17:51:05.072Z,13.00
2023-03-24T17:53:33.534Z,12.23
2023-03-24T17:56:07.135Z,12.75
2023-03-24T17:58:35.797Z,13.65
2023-03-24T18:01:07.888Z,13.77
2023-03-24T18:03:37.577Z,12.67
2023-03-24T18:06:12.567Z,12.27
2023-03-24T18:08:39.625Z,12.20
2023-03-24T18:11:09.158Z,12.30
2023-03-24T18:13:36.149Z,12.35
2023-03-24T18:16:17.724Z,10.95
2023-03-24T18:18:47.152Z,11.52
2023-03-24T18:21:13.792Z,11.68
2023-03-24T18:23:40.316Z,11.73
2023-03-24T18:26:08.669Z,12.32
2023-03-24T18:28:37.534Z,12.05
2023-03-24T18:31:16.449Z,12.70
2023-03-24T18:33:45.885Z,11.70
2023-03-24T18:36:16.491Z,10.75
2023-03-24T18:38:43.601Z,11.65
2023-03-24T18:41:12.712Z,9.88
2023-03-24T18:43:41.006Z,10.15
2023-03-24T18:46:11.403Z,9.38
2023-03-24T18:48:39.652Z,9.13
2023-03-24T18:51:06.416Z,9.38
2023-03-24T18:53:35.805Z,9.27
2023-03-24T18:56:04.133Z,9.23
2023-03-24T18:58:30.993Z,9.05
2023-03-24T19:00:58.721Z,9.25
2023-03-24T19:03:27.225Z,8.73
2023-03-24T19:05:53.977Z,9.18
2023-03-24T19:08:21.927Z,9.02
2023-03-24T19:10:49.163Z,8.75
2023-03-24T19:13:16.974Z,8.23
2023-03-24T19:15:47.746Z,8.55
2023-03-24T19:18:15.416Z,8.23
2023-03-24T19:20:42.132Z,8.45
2023-03-24T19:23:09.100Z,9.25
2023-03-24T19:25:35.672Z,7.43
2023-03-24T19:28:02.253Z,8.10
2023-03-24T19:30:29.455Z,7.88
2023-03-24T19:32:56.738Z,7.85
2023-03-24T19:35:24.005Z,7.40
2023-03-24T19:37:50.630Z,7.80
2023-03-24T19:40:17.398Z,7.32
2023-03-24T19:42:45.154Z,6.97
2023-03-24T19:45:13.878Z,6.90
2023-03-24T19:47:40.498Z,6.88
2023-03-24T19:50:08.127Z,7.22
2023-03-24T19:52:35.440Z,6.03
2023-03-24T19:55:02.488Z,6.45
2023-03-24T19:57:30.537Z,5.90
2023-03-24T19:59:57.515Z,6.25
2023-03-24T20:02:24.890Z,6.30
2023-03-24T20:04:55.047Z,5.80
2023-03-24T20:07:23.050Z,5.65
2023-03-24T20:09:49.648Z,5.50
2023-03-24T20:12:16.452Z,5.20
2023-03-24T20:14:43.021Z,5.32
2023-03-24T20:17:17.507Z,5.13
2023-03-24T20:19:44.557Z,5.70
2023-03-24T20:22:11.087Z,4.72
2023-03-24T20:24:40.676Z,4.85
2023-03-24T20:27:07.716Z,4.80
2023-03-24T20:29:34.631Z,4.85
2023-03-24T20:32:01.201Z,4.75
2023-03-24T20:34:27.745Z,4.40
2023-03-24T20:36:54.357Z,4.78
2023-03-24T20:39:20.941Z,4.55
2023-03-24T20:41:47.445Z,4.43
2023-03-24T20:44:14.030Z,4.25
2023-03-24T20:46:40.623Z,3.88
2023-03-24T20:49:08.655Z,4.07
2023-03-24T20:51:35.231Z,4.40
2023-03-24T20:54:01.912Z,4.00
2023-03-24T20:56:28.580Z,3.53
2023-03-24T20:58:55.139Z,4.57
2023-03-24T21:01:22.111Z,4.10
2023-03-24T21:03:50.405Z,4.65
2023-03-24T21:06:17.514Z,3.80
2023-03-24T21:08:45.321Z,3.88
2023-03-24T21:11:12.769Z,3.47
2023-03-24T21:13:39.914Z,4.00
2023-03-24T21:16:11.532Z,3.75
2023-03-24T21:18:38.888Z,3.67
2023-03-24T21:21:06.182Z,3.55
2023-03-24T21:23:34.256Z,3.58
2023-03-24T21:26:08.598Z,3.92
2023-03-24T21:28:35.118Z,3.90
2023-03-24T21:31:20.009Z,3.53
2023-03-24T21:33:46.608Z,3.83
2023-03-24T21:36:13.563Z,3.85
2023-03-24T21:38:40.501Z,3.75
2023-03-24T21:41:07.887Z,3.63
2023-03-24T21:43:34.956Z,4.03
2023-03-24T21:46:03.884Z,3.53
2023-03-24T21:48:32.837Z,3.83
2023-03-24T21:51:00.324Z,3.08
2023-03-24T21:53:26.845Z,3.63
2023-03-24T21:55:56.543Z,3.90
2023-03-24T21:58:23.438Z,3.75
2023-03-24T22:00:50.927Z,3.78
2023-03-24T22:03:17.930Z,3.17
2023-03-24T22:05:44.557Z,4.53
2023-03-24T22:08:12.177Z,3.40
2023-03-24T22:10:42.496Z,3.83
2023-03-24T22:13:10.321Z,4.30
2023-03-24T22:15:37.724Z,3.17
2023-03-24T22:18:04.427Z,3.78
2023-03-24T22:20:32.006Z,3.92
2023-03-24T22:22:59.974Z,3.58
2023-03-24T22:25:26.497Z,3.38
2023-03-24T22:27:56.014Z,3.55
2023-03-24T22:30:23.257Z,3.75
2023-03-24T22:32:49.932Z,3.13
2023-03-24T22:35:16.766Z,3.67
2023-03-24T22:37:43.340Z,3.60
2023-03-24T22:40:09.943Z,3.55
2023-03-24T22:42:36.585Z,3.53
2023-03-24T22:45:03.187Z,3.50
2023-03-24T22:47:29.764Z,3.60
2023-03-24T22:49:56.344Z,3.60
2023-03-24T22:52:22.983Z,3.55
2023-03-24T22:54:49.576Z,2.90
2023-03-24T22:57:17.654Z,3.60
2023-03-24T22:59:44.562Z,3.35
2023-03-24T23:02:11.078Z,3.20
2023-03-24T23:04:40.371Z,3.30
2023-03-24T23:07:07.648Z,2.80
2023-03-24T23:09:34.307Z,3.10
2023-03-24T23:12:00.881Z,4.22
2023-03-24T23:14:27.711Z,2.60
2023-03-24T23:16:56.374Z,3.13
2023-03-24T23:19:23.305Z,3.33
2023-03-24T23:21:50.037Z,2.85
2023-03-24T23:24:17.019Z,3.10
2023-03-24T23:26:43.609Z,2.90
2023-03-24T23:29:10.211Z,2.92
2023-03-24T23:31:36.978Z,2.80
2023-03-24T23:34:07.416Z,2.97
2023-03-24T23:36:34.226Z,3.05
2023-03-24T23:39:01.105Z,3.25
2023-03-24T23:41:27.721Z,3.13
2023-03-24T23:43:54.309Z,2.80
2023-03-24T23:46:22.039Z,2.67
2023-03-24T23:48:48.631Z,2.60
2023-03-24T23:51:15.674Z,3.15
2023-03-24T23:53:42.400Z,2.50
2023-03-24T23:56:11.224Z,3.28
2023-03-24T23:58:40.125Z,2.10
